La Madera, New Mexico
Current Conditions -  °F | °C
As of 10:55 AM on Monday 24 Nov 2014 (Local Time) from KSKX Reporting Station
Clear Clear  
Wind Chill: 13°   Ceiling: Unl
Heat Index: 23°   Visibility: 10mi
Dew Point: 10°   Wind: 9mph
Humidity: 59%   Direction: 230°SW
Pressure: 30.1"   Gusts: NA
Location:  36.39°N, 106.04°W
Report Text: KSKX 241755Z AUTO 23008KT 10SM CLR M05/M12 A3010 RMK AO1 11050 21190 52007
Loading
Personal Weather Stations






























Interactive Weather Map New forecast layout! Learn more

10-Day Weather Forecast

Advertisements
Track Severe Weather on mobile